Time;durP1;ratioP1;P1;durP2;ratioP2;P2;SDS_P1;SDS_P2;PMS_P1;PMS_P2;Temp;Humidity;BMP_temperature;BMP_pressure;BME280_temperature;BME280_humidity;BME280_pressure;Samples;Min_cycle;Max_cycle;Signal;HPM_P1;HPM_P2
2021/06/22 00:00:17;;;;;;;0.3;0.3;;;;;;;18.14;82.95605;934.4579;;;;
2021/06/22 00:02:42;;;;;;;0.1;0.1;;;;;;;17.98;83.84375;934.4536;;;;
2021/06/22 00:05:09;;;;;;;0;0;;;;;;;17.87;84.50586;934.4548;;;;
2021/06/22 00:07:34;;;;;;;0;0;;;;;;;17.82;85.10059;934.4656;;;;
2021/06/22 00:09:59;;;;;;;0.9;0.4;;;;;;;17.88;84.95117;934.4762;;;;
2021/06/22 00:12:24;;;;;;;0.3;0.3;;;;;;;17.87;84.80957;934.4345;;;;
2021/06/22 00:14:51;;;;;;;0.3;0.3;;;;;;;18.03;84.35156;934.4269;;;;
2021/06/22 00:17:16;;;;;;;0;0;;;;;;;18.28;83.96777;934.4023;;;;
2021/06/22 00:19:42;;;;;;;0;0;;;;;;;18.39;83.23633;934.2822;;;;
2021/06/22 00:22:07;;;;;;;0;0;;;;;;;18.5;82.4082;934.2288;;;;
2021/06/22 00:24:32;;;;;;;0;0;;;;;;;18.69;81.47656;934.2307;;;;
2021/06/22 00:26:58;;;;;;;0.1;0.1;;;;;;;18.82;81.04785;934.2223;;;;
2021/06/22 00:29:24;;;;;;;0.5;0.5;;;;;;;18.83;79.87402;934.1883;;;;
2021/06/22 00:31:49;;;;;;;0.1;0.1;;;;;;;18.86;79.34375;934.2391;;;;
2021/06/22 00:34:15;;;;;;;0;0;;;;;;;18.94;78.7998;934.2156;;;;
2021/06/22 00:39:05;;;;;;;0.1;0.1;;;;;;;18.88;79.52148;934.2078;;;;
2021/06/22 00:42:51;;;;;;;0.4;0.4;;;;;;;18.86;79.34375;934.1817;;;;
2021/06/22 00:45:17;;;;;;;0.4;0.3;;;;;;;18.83;78.82715;934.1237;;;;
2021/06/22 00:47:42;;;;;;;0.1;0.1;;;;;;;18.92;78.66699;934.109;;;;
2021/06/22 00:50:07;;;;;;;0;0;;;;;;;18.98;78.55176;934.0886;;;;
2021/06/22 00:52:33;;;;;;;0.9;0.5;;;;;;;19.02;78.40625;933.972;;;;
2021/06/22 00:54:58;;;;;;;1.5;0.8;;;;;;;19;78.32227;933.9467;;;;
2021/06/22 00:57:24;;;;;;;0;0;;;;;;;18.78;79.55176;933.8658;;;;
2021/06/22 00:59:49;;;;;;;0.5;0.3;;;;;;;18.78;79.40039;933.8206;;;;
2021/06/22 01:02:16;;;;;;;0.2;0.2;;;;;;;18.89;79.15039;933.7709;;;;
2021/06/22 01:04:41;;;;;;;0;0;;;;;;;18.86;78.75;933.7242;;;;
2021/06/22 01:07:07;;;;;;;0.3;0.3;;;;;;;18.79;78.94629;933.7574;;;;
2021/06/22 01:09:32;;;;;;;0.3;0.3;;;;;;;18.75;79.28809;933.7475;;;;
2021/06/22 01:11:58;;;;;;;0.2;0.2;;;;;;;18.73;79.28613;933.7076;;;;
2021/06/22 01:14:23;;;;;;;0.1;0.1;;;;;;;18.82;79.34863;933.7028;;;;
2021/06/22 01:16:50;;;;;;;5;0.8;;;;;;;18.88;78.23145;933.7349;;;;
2021/06/22 01:19:15;;;;;;;0.1;0.1;;;;;;;18.78;78.22363;933.7562;;;;
2021/06/22 01:21:41;;;;;;;0;0;;;;;;;18.55;78.7998;933.7008;;;;
2021/06/22 01:24:06;;;;;;;0.1;0.1;;;;;;;18.51;78.94336;933.7053;;;;
2021/06/22 01:26:31;;;;;;;0.1;0.1;;;;;;;18.52;78.55078;933.613;;;;
2021/06/22 01:28:56;;;;;;;0;0;;;;;;;18.47;78.79688;933.7202;;;;
2021/06/22 01:31:22;;;;;;;0.2;0.2;;;;;;;18.4;79.23926;933.7386;;;;
2021/06/22 01:33:48;;;;;;;0.2;0.2;;;;;;;18.28;79.69141;933.755;;;;
2021/06/22 01:36:13;;;;;;;0;0;;;;;;;18.4;79.35547;933.7402;;;;
2021/06/22 01:38:38;;;;;;;0.1;0.1;;;;;;;18.47;79.5166;933.613;;;;
2021/06/22 01:41:06;;;;;;;0.2;0.2;;;;;;;18.45;78.73535;933.582;;;;
2021/06/22 01:43:31;;;;;;;0.2;0.2;;;;;;;18.45;78.78027;933.5878;;;;
2021/06/22 01:45:56;;;;;;;0.3;0.2;;;;;;;18.43;78.71875;933.6454;;;;
2021/06/22 01:48:22;;;;;;;0.4;0.4;;;;;;;18.42;78.51953;933.5722;;;;
2021/06/22 01:50:50;;;;;;;0.1;0.1;;;;;;;18.41;78.51855;933.5167;;;;
2021/06/22 01:53:15;;;;;;;0.4;0.2;;;;;;;18.48;78.49609;933.4594;;;;
2021/06/22 01:55:41;;;;;;;1.3;0.5;;;;;;;18.46;78.3418;933.4648;;;;
2021/06/22 01:58:06;;;;;;;0.3;0.3;;;;;;;18.33;78.31934;933.3875;;;;
2021/06/22 02:00:30;;;;;;;0.1;0.1;;;;;;;18.35;78.49707;933.3136;;;;
2021/06/22 02:02:55;;;;;;;0.1;0.1;;;;;;;18.27;78.34277;933.2942;;;;
2021/06/22 02:05:21;;;;;;;0.2;0.2;;;;;;;18.27;78.35449;933.2346;;;;
2021/06/22 02:07:46;;;;;;;0.3;0.3;;;;;;;18.17;79.06934;933.2299;;;;
2021/06/22 02:10:11;;;;;;;0.3;0.3;;;;;;;18.12;79.14063;933.2167;;;;
2021/06/22 02:12:38;;;;;;;0.3;0.3;;;;;;;18.14;79.02734;933.2734;;;;
2021/06/22 02:15:03;;;;;;;0.1;0.1;;;;;;;18.14;79.19043;933.2952;;;;
2021/06/22 02:17:28;;;;;;;0;0;;;;;;;18.05;79.61523;933.3452;;;;
2021/06/22 02:19:53;;;;;;;0.1;0.1;;;;;;;18.02;79.68066;933.3578;;;;
2021/06/22 02:22:19;;;;;;;0.2;0.2;;;;;;;17.96;79.80957;933.294;;;;
2021/06/22 02:24:44;;;;;;;0.2;0.2;;;;;;;17.97;79.70703;933.2244;;;;
2021/06/22 02:27:09;;;;;;;0.2;0.2;;;;;;;18.05;79.74316;933.2928;;;;
2021/06/22 02:29:35;;;;;;;0.2;0.2;;;;;;;18;79.36133;933.2753;;;;
2021/06/22 02:32:00;;;;;;;0.1;0.1;;;;;;;17.97;79.42871;933.2414;;;;
2021/06/22 02:34:25;;;;;;;0.1;0.1;;;;;;;17.91;79.6377;933.2406;;;;
2021/06/22 02:36:50;;;;;;;0.1;0.1;;;;;;;17.9;79.29883;933.2094;;;;
2021/06/22 02:39:15;;;;;;;5.4;0.9;;;;;;;17.63;80.39941;933.1926;;;;
2021/06/22 02:41:41;;;;;;;0.2;0.2;;;;;;;17.48;80.79004;933.1573;;;;
2021/06/22 02:44:06;;;;;;;0.6;0.5;;;;;;;17.59;80.54199;933.088;;;;
2021/06/22 02:46:31;;;;;;;0.1;0.1;;;;;;;17.73;80.52344;933.1227;;;;
2021/06/22 02:48:57;;;;;;;0.9;0.7;;;;;;;17.8;79.74512;933.1241;;;;
2021/06/22 02:51:22;;;;;;;0.3;0.3;;;;;;;17.75;80.02637;933.0762;;;;
2021/06/22 02:53:47;;;;;;;0.2;0.2;;;;;;;17.71;79.76367;933.0572;;;;
2021/06/22 02:56:12;;;;;;;0.1;0.1;;;;;;;17.72;79.90332;932.9983;;;;
2021/06/22 02:58:38;;;;;;;0.3;0.3;;;;;;;17.64;79.95996;932.9498;;;;
2021/06/22 03:01:03;;;;;;;0.8;0.3;;;;;;;17.49;80.47754;932.9399;;;;
2021/06/22 03:03:29;;;;;;;0.2;0.2;;;;;;;17.33;80.95898;932.9598;;;;
2021/06/22 03:05:54;;;;;;;0.1;0.1;;;;;;;17.37;80.9873;933.0064;;;;
2021/06/22 03:08:24;;;;;;;0.2;0.2;;;;;;;17.42;80.51074;933.0244;;;;
2021/06/22 03:10:49;;;;;;;1.1;0.5;;;;;;;17.31;80.77051;933.0591;;;;
2021/06/22 03:13:14;;;;;;;0.9;0.9;;;;;;;17.33;80.33301;932.9589;;;;
2021/06/22 03:15:44;;;;;;;0.1;0.1;;;;;;;17.39;80.18066;932.889;;;;
2021/06/22 03:18:10;;;;;;;0.1;0.1;;;;;;;17.44;80.16602;932.9123;;;;
2021/06/22 03:20:35;;;;;;;0;0;;;;;;;17.52;80.1709;932.8812;;;;
2021/06/22 03:23:01;;;;;;;1.5;0.3;;;;;;;17.63;80.01758;932.9824;;;;
2021/06/22 03:25:26;;;;;;;0.3;0.3;;;;;;;17.71;79.12598;932.9074;;;;
2021/06/22 03:28:03;;;;;;;0.1;0.1;;;;;;;17.8;78.69922;932.98;;;;
2021/06/22 03:30:31;;;;;;;0;0;;;;;;;17.75;78.42383;933.0117;;;;
2021/06/22 03:32:56;;;;;;;0.3;0.3;;;;;;;17.71;78.43945;932.9953;;;;
2021/06/22 03:35:22;;;;;;;0.1;0.1;;;;;;;17.49;79.45605;933.0068;;;;
2021/06/22 03:37:47;;;;;;;0.2;0.2;;;;;;;17.33;79.86914;932.962;;;;
2021/06/22 03:40:14;;;;;;;1;0.2;;;;;;;17.36;80.2334;932.9944;;;;
2021/06/22 03:42:39;;;;;;;0.1;0.1;;;;;;;17.44;80.09766;932.9258;;;;
2021/06/22 03:45:09;;;;;;;0.2;0.2;;;;;;;17.43;79.95508;932.9439;;;;
2021/06/22 03:47:36;;;;;;;0.2;0.2;;;;;;;17.45;79.98535;932.9199;;;;
2021/06/22 03:50:01;;;;;;;0.1;0.1;;;;;;;17.56;79.92383;932.926;;;;
2021/06/22 03:52:26;;;;;;;0.1;0.1;;;;;;;17.58;79.56543;932.9377;;;;
2021/06/22 03:54:51;;;;;;;0.2;0.2;;;;;;;17.67;79.60449;932.9202;;;;
2021/06/22 03:57:16;;;;;;;0.6;0.4;;;;;;;17.54;78.93262;932.9498;;;;
2021/06/22 03:59:41;;;;;;;2.4;0.7;;;;;;;17.64;79.42578;932.9153;;;;
2021/06/22 04:02:30;;;;;;;1.8;0.6;;;;;;;17.72;78.95117;932.9426;;;;
2021/06/22 04:04:55;;;;;;;0.1;0.1;;;;;;;17.78;78.31445;933.0149;;;;
2021/06/22 04:07:21;;;;;;;0.1;0.1;;;;;;;17.87;78.75879;932.9744;;;;
2021/06/22 04:09:46;;;;;;;0.7;0.4;;;;;;;17.99;78.81641;932.934;;;;
2021/06/22 04:12:13;;;;;;;0.6;0.2;;;;;;;18.07;78.0752;933.0336;;;;
2021/06/22 04:14:38;;;;;;;0.3;0.3;;;;;;;17.78;79.125;933.0144;;;;
2021/06/22 04:17:05;;;;;;;0;0;;;;;;;17.64;79.83203;933.0754;;;;
2021/06/22 04:19:30;;;;;;;0.2;0.2;;;;;;;17.42;81.14844;933.0775;;;;
2021/06/22 04:21:55;;;;;;;0;0;;;;;;;17.59;79.26563;933.108;;;;
2021/06/22 04:24:20;;;;;;;0.8;0.4;;;;;;;17.58;80.08887;933.0897;;;;
2021/06/22 04:26:47;;;;;;;0.3;0.2;;;;;;;17.47;78.93066;933.1168;;;;
2021/06/22 04:29:12;;;;;;;0.1;0.1;;;;;;;17.51;79.06543;933.0151;;;;
2021/06/22 04:31:39;;;;;;;0.2;0.2;;;;;;;17.56;79.21387;933.1144;;;;
2021/06/22 04:34:05;;;;;;;0.1;0.1;;;;;;;17.66;78.2334;933.0325;;;;
2021/06/22 04:36:31;;;;;;;0.1;0.1;;;;;;;17.65;78.02344;933.1165;;;;
2021/06/22 04:38:56;;;;;;;0.2;0.2;;;;;;;17.56;78.54297;933.1152;;;;
2021/06/22 04:41:23;;;;;;;0.2;0.2;;;;;;;17.48;79.16406;933.1044;;;;
2021/06/22 04:43:47;;;;;;;0.4;0.4;;;;;;;17.63;78.60059;933.0252;;;;
2021/06/22 04:46:14;;;;;;;2.2;1;;;;;;;17.58;79.04297;933.1036;;;;
2021/06/22 04:48:39;;;;;;;3.9;0.8;;;;;;;17.64;78.69434;933.1312;;;;
2021/06/22 04:51:05;;;;;;;0.3;0.3;;;;;;;17.57;78.78613;933.0675;;;;
2021/06/22 04:53:30;;;;;;;0.2;0.2;;;;;;;17.55;79.16406;933.0922;;;;
2021/06/22 04:55:56;;;;;;;1.1;0.9;;;;;;;17.64;79.06641;933.1119;;;;
2021/06/22 04:58:21;;;;;;;0.1;0.1;;;;;;;17.62;79.08594;933.1179;;;;
2021/06/22 05:00:48;;;;;;;0;0;;;;;;;17.82;78.30957;933.0535;;;;
2021/06/22 05:03:13;;;;;;;0;0;;;;;;;18.27;78.09863;933.0025;;;;
2021/06/22 05:05:40;;;;;;;0.1;0.1;;;;;;;19.53;72.72754;932.9969;;;;
2021/06/22 05:08:05;;;;;;;0.8;0.5;;;;;;;20.67;67.82129;932.9543;;;;
2021/06/22 05:10:31;;;;;;;0.1;0.1;;;;;;;21.25;65.63965;932.9542;;;;
2021/06/22 05:12:56;;;;;;;0;0;;;;;;;21.9;63.48535;932.968;;;;
2021/06/22 05:15:29;;;;;;;0;0;;;;;;;22.64;60.77539;932.9105;;;;
2021/06/22 05:17:55;;;;;;;2.2;0.6;;;;;;;22.84;59.69922;932.9425;;;;
2021/06/22 05:20:20;;;;;;;0.1;0.1;;;;;;;23.31;59.00977;932.9216;;;;
2021/06/22 05:22:46;;;;;;;3;0.2;;;;;;;23.44;57.19238;932.9564;;;;
2021/06/22 05:25:11;;;;;;;0.3;0.3;;;;;;;23.48;56.78516;932.9144;;;;
2021/06/22 05:27:38;;;;;;;1.8;0.4;;;;;;;23.1;57.26563;932.8699;;;;
2021/06/22 05:30:03;;;;;;;0.2;0.2;;;;;;;23.54;55.95898;932.8539;;;;
2021/06/22 05:32:28;;;;;;;0.2;0.2;;;;;;;23.15;56.41504;932.808;;;;
2021/06/22 05:34:53;;;;;;;0.1;0.1;;;;;;;24.1;55.26367;932.8812;;;;
2021/06/22 05:37:20;;;;;;;0.1;0;;;;;;;23.31;55.96387;932.878;;;;
2021/06/22 05:39:44;;;;;;;0.2;0.2;;;;;;;23.53;56.0625;932.9194;;;;
2021/06/22 05:42:11;;;;;;;0.4;0.1;;;;;;;23.65;56.0791;932.8947;;;;
2021/06/22 05:44:35;;;;;;;0.1;0.1;;;;;;;24.59;53.08496;932.8738;;;;
2021/06/22 05:47:00;;;;;;;0.5;0.3;;;;;;;25.32;52.84082;932.7974;;;;
2021/06/22 05:49:26;;;;;;;0.2;0.2;;;;;;;26.15;48.38379;932.7389;;;;
2021/06/22 05:51:52;;;;;;;0;0;;;;;;;25.91;47.75488;932.7763;;;;
2021/06/22 05:54:18;;;;;;;0.5;0.4;;;;;;;25.44;49.13379;932.7839;;;;
2021/06/22 05:56:43;;;;;;;0.2;0.2;;;;;;;25.87;48.63672;932.785;;;;
2021/06/22 05:59:10;;;;;;;0.1;0.1;;;;;;;26.68;47.26855;932.7841;;;;
2021/06/22 06:01:35;;;;;;;0.2;0.2;;;;;;;27.06;46.04102;932.7703;;;;
2021/06/22 06:04:01;;;;;;;0.2;0.2;;;;;;;27.13;45.24121;932.7906;;;;
2021/06/22 06:06:26;;;;;;;0.2;0.2;;;;;;;27.38;44.99316;932.7744;;;;
2021/06/22 06:08:51;;;;;;;0.3;0.3;;;;;;;26.96;46.56348;932.7144;;;;
2021/06/22 06:11:16;;;;;;;0.2;0.2;;;;;;;27.8;44.40723;932.7048;;;;
2021/06/22 06:13:42;;;;;;;0.1;0.1;;;;;;;28.22;43.2832;932.6987;;;;
2021/06/22 06:16:10;;;;;;;0.1;0.1;;;;;;;29.02;42.52734;932.6177;;;;
2021/06/22 06:18:37;;;;;;;0.3;0.3;;;;;;;29.3;43.14941;932.6294;;;;
2021/06/22 06:21:02;;;;;;;0.8;0.6;;;;;;;29.02;41.62305;932.6199;;;;
2021/06/22 06:23:31;;;;;;;0.4;0.4;;;;;;;28.97;41.8916;932.5858;;;;
2021/06/22 06:25:55;;;;;;;0.1;0.1;;;;;;;29.99;40.8291;932.519;;;;
2021/06/22 06:28:23;;;;;;;0.1;0.1;;;;;;;31.02;38.67285;932.558;;;;
2021/06/22 06:30:45;;;;;;;0.1;0.1;;;;;;;29.73;42.42676;932.5792;;;;
2021/06/22 06:33:12;;;;;;;0.2;0.2;;;;;;;30.57;40.3916;932.5565;;;;
2021/06/22 06:35:36;;;;;;;0.1;0.1;;;;;;;30.31;39.31738;932.5564;;;;
2021/06/22 06:38:01;;;;;;;0.2;0.2;;;;;;;31.51;37.03809;932.5243;;;;
2021/06/22 06:40:26;;;;;;;0.1;0.1;;;;;;;31.96;36.10547;932.5017;;;;
2021/06/22 06:42:53;;;;;;;0.2;0.2;;;;;;;32.22;35.68164;932.4753;;;;
2021/06/22 06:45:18;;;;;;;3.4;0.7;;;;;;;32.36;36.60449;932.4666;;;;
2021/06/22 06:47:43;;;;;;;0.1;0.1;;;;;;;32.99;34.56641;932.4294;;;;
2021/06/22 06:50:08;;;;;;;0.2;0.2;;;;;;;31.55;38.26367;932.4519;;;;
2021/06/22 06:52:35;;;;;;;0.1;0.1;;;;;;;31.95;37.80664;932.4587;;;;
2021/06/22 06:55:00;;;;;;;0.4;0.4;;;;;;;31.69;38.04785;932.3983;;;;
2021/06/22 06:57:26;;;;;;;7.1;0.8;;;;;;;31.95;35.9248;932.3812;;;;
2021/06/22 06:59:51;;;;;;;1;0.7;;;;;;;31.34;38.06641;932.3664;;;;
2021/06/22 07:02:17;;;;;;;0.1;0.1;;;;;;;31.23;40.85645;932.3669;;;;
2021/06/22 07:04:42;;;;;;;0.1;0.1;;;;;;;31.29;40.77832;932.4103;;;;
2021/06/22 07:07:09;;;;;;;0.9;0.7;;;;;;;32.86;36.44141;932.3701;;;;
2021/06/22 07:09:34;;;;;;;0.1;0.1;;;;;;;32.3;36.84082;932.3406;;;;
2021/06/22 07:12:00;;;;;;;0.1;0.1;;;;;;;33.75;33.68555;932.3156;;;;
2021/06/22 07:14:25;;;;;;;0.3;0.3;;;;;;;34.12;33.18262;932.3122;;;;
2021/06/22 07:16:51;;;;;;;0.1;0.1;;;;;;;34.93;32.61426;932.2319;;;;
2021/06/22 07:19:16;;;;;;;0.2;0.2;;;;;;;35.53;32.18652;932.2562;;;;
2021/06/22 07:21:42;;;;;;;0.3;0.3;;;;;;;34.47;34.35352;932.2287;;;;
2021/06/22 07:24:07;;;;;;;0.1;0.1;;;;;;;33.75;33.35938;932.1899;;;;
2021/06/22 07:26:34;;;;;;;0.2;0.2;;;;;;;34.74;32.04688;932.0867;;;;
2021/06/22 07:28:59;;;;;;;0.5;0.4;;;;;;;34.05;34.80273;932.1116;;;;
2021/06/22 07:31:25;;;;;;;0.2;0.2;;;;;;;36.15;30.87598;932.1206;;;;
2021/06/22 07:34:11;;;;;;;0.9;0.4;;;;;;;35.43;30.68164;932.0964;;;;
2021/06/22 07:36:36;;;;;;;0.2;0.2;;;;;;;35.79;30.35547;931.9984;;;;
2021/06/22 07:39:01;;;;;;;0.2;0.1;;;;;;;35.65;30.53906;931.9363;;;;
2021/06/22 07:41:28;;;;;;;0.2;0.2;;;;;;;35.64;30.76855;931.908;;;;
2021/06/22 07:43:53;;;;;;;0.3;0.3;;;;;;;35.59;32.09375;931.8807;;;;
2021/06/22 07:46:19;;;;;;;0.3;0.3;;;;;;;36.18;29.47461;931.8638;;;;
2021/06/22 07:48:44;;;;;;;1;0.4;;;;;;;35.65;31.9043;931.8954;;;;
2021/06/22 07:51:10;;;;;;;0.2;0.2;;;;;;;34.99;32.19629;931.825;;;;
2021/06/22 07:53:35;;;;;;;0.2;0.2;;;;;;;36.27;29.73438;931.8095;;;;
2021/06/22 07:56:02;;;;;;;0.4;0.4;;;;;;;36.43;30.62793;931.7926;;;;
2021/06/22 07:58:27;;;;;;;0.2;0.2;;;;;;;36.19;30.88965;931.782;;;;
2021/06/22 08:00:54;;;;;;;0.2;0.2;;;;;;;36.22;30.39551;931.7673;;;;
2021/06/22 08:03:18;;;;;;;0.1;0.1;;;;;;;36.71;28.90332;931.7815;;;;
2021/06/22 08:05:43;;;;;;;0.1;0.1;;;;;;;36.7;29.89453;931.7278;;;;
2021/06/22 08:08:08;;;;;;;0.2;0.2;;;;;;;36.24;30.32422;931.694;;;;
2021/06/22 08:10:33;;;;;;;0.1;0.1;;;;;;;35.9;30.14551;931.6386;;;;
2021/06/22 08:12:58;;;;;;;0.2;0.2;;;;;;;36.38;29.2207;931.6049;;;;
2021/06/22 08:15:27;;;;;;;0.7;0.6;;;;;;;36.98;29.64746;931.6141;;;;
2021/06/22 08:17:53;;;;;;;0.4;0.4;;;;;;;36.46;28.37891;931.6094;;;;
2021/06/22 08:20:18;;;;;;;0.2;0.2;;;;;;;36.41;29.85254;931.621;;;;
2021/06/22 08:22:51;;;;;;;0.2;0.2;;;;;;;35.13;31.14551;931.5941;;;;
2021/06/22 08:25:09;;;;;;;0.4;0.3;;;;;;;35.31;30.81934;931.588;;;;
2021/06/22 08:27:35;;;;;;;0.2;0.2;;;;;;;34.6;30.98828;931.5942;;;;
2021/06/22 08:30:00;;;;;;;0.2;0.2;;;;;;;34.12;33.20703;931.5931;;;;
2021/06/22 08:32:25;;;;;;;0.1;0.1;;;;;;;34.74;29.47754;931.6249;;;;
2021/06/22 08:34:50;;;;;;;0.1;0.1;;;;;;;34.24;30.39746;931.6675;;;;
2021/06/22 08:37:15;;;;;;;1.3;0.7;;;;;;;35.49;31.31445;931.6783;;;;
2021/06/22 08:39:41;;;;;;;0.3;0.3;;;;;;;35.7;30.39844;931.707;;;;
2021/06/22 08:42:07;;;;;;;0.2;0.2;;;;;;;33.73;33.43164;931.6655;;;;
2021/06/22 08:44:33;;;;;;;0.1;0.1;;;;;;;33.17;35.24023;931.6686;;;;
2021/06/22 08:46:58;;;;;;;0.2;0.2;;;;;;;33.03;34.00391;931.6547;;;;
2021/06/22 08:49:24;;;;;;;0.1;0.1;;;;;;;32.54;37.09961;931.6603;;;;
2021/06/22 08:51:49;;;;;;;0.1;0.1;;;;;;;32.38;38.76563;931.6516;;;;
2021/06/22 08:54:14;;;;;;;0.2;0.2;;;;;;;33.63;35.28809;931.6227;;;;
2021/06/22 08:56:39;;;;;;;0.2;0.2;;;;;;;34.11;34.4707;931.5793;;;;
2021/06/22 08:59:07;;;;;;;0.1;0.1;;;;;;;33.73;36.47461;931.6187;;;;
2021/06/22 09:01:32;;;;;;;0.2;0.2;;;;;;;33.45;35.37012;931.613;;;;
2021/06/22 09:03:57;;;;;;;0.8;0.3;;;;;;;32.44;37.71484;931.6276;;;;
2021/06/22 09:06:22;;;;;;;0.1;0.1;;;;;;;31.47;38.90332;931.6791;;;;
2021/06/22 09:08:47;;;;;;;0.2;0.2;;;;;;;32.78;36.50684;931.6392;;;;
2021/06/22 09:11:13;;;;;;;0.1;0.1;;;;;;;32.43;38.91406;931.5983;;;;
2021/06/22 09:13:39;;;;;;;0.2;0.2;;;;;;;31.24;40.92969;931.5614;;;;
2021/06/22 09:16:03;;;;;;;0.2;0.2;;;;;;;30.99;41.68359;931.5308;;;;
2021/06/22 09:18:28;;;;;;;0.2;0.2;;;;;;;30.94;41.53613;931.5246;;;;
2021/06/22 09:20:53;;;;;;;1.2;0.3;;;;;;;31;41.78027;931.5342;;;;
2021/06/22 09:23:18;;;;;;;0.9;0.3;;;;;;;30.88;43.09766;931.5861;;;;
2021/06/22 09:25:43;;;;;;;0.1;0.1;;;;;;;29.64;45.29199;931.5142;;;;
2021/06/22 09:28:09;;;;;;;0.2;0.2;;;;;;;29.55;46.87988;931.4734;;;;
2021/06/22 09:30:34;;;;;;;0.3;0.3;;;;;;;29.18;47.44922;931.5274;;;;
2021/06/22 09:32:59;;;;;;;0.3;0.3;;;;;;;28.95;50.76953;931.475;;;;
2021/06/22 09:35:25;;;;;;;0.1;0.1;;;;;;;29.04;48.66016;931.4461;;;;
2021/06/22 09:37:50;;;;;;;0;0;;;;;;;28.61;50.23145;931.4839;;;;
2021/06/22 09:40:17;;;;;;;0.2;0.2;;;;;;;28.72;48.53027;931.4506;;;;
2021/06/22 09:42:42;;;;;;;0.2;0.1;;;;;;;29.26;48.70801;931.4626;;;;
2021/06/22 09:45:07;;;;;;;0.1;0.1;;;;;;;29.34;48.78711;931.4347;;;;
2021/06/22 09:47:32;;;;;;;0.9;0.5;;;;;;;29.86;47.96094;931.4551;;;;
2021/06/22 09:49:57;;;;;;;0.5;0.2;;;;;;;28.93;48.71973;931.4366;;;;
2021/06/22 09:52:23;;;;;;;0.1;0.1;;;;;;;28.69;51.46484;931.4263;;;;
2021/06/22 09:54:49;;;;;;;0.2;0.2;;;;;;;28.76;51.09375;931.4215;;;;
2021/06/22 09:57:14;;;;;;;0.3;0.3;;;;;;;29.15;50.14941;931.4149;;;;
2021/06/22 09:59:56;;;;;;;0.2;0.2;;;;;;;28.9;51.41895;931.3876;;;;
2021/06/22 10:02:20;;;;;;;0.3;0.3;;;;;;;28.87;51.33203;931.3881;;;;
2021/06/22 10:04:45;;;;;;;0.1;0.1;;;;;;;28.77;50.72559;931.4058;;;;
2021/06/22 10:07:10;;;;;;;0.1;0.1;;;;;;;28.42;51.32715;931.4041;;;;
2021/06/22 10:09:35;;;;;;;0.2;0.2;;;;;;;28.4;51.39746;931.4575;;;;
2021/06/22 10:12:02;;;;;;;0.1;0.1;;;;;;;28.26;54.10254;931.4279;;;;
2021/06/22 10:14:27;;;;;;;0.4;0.4;;;;;;;28.27;52.32227;931.4648;;;;
2021/06/22 10:16:54;;;;;;;0.1;0.1;;;;;;;28.45;52.15332;931.3762;;;;
2021/06/22 10:19:19;;;;;;;0.1;0.1;;;;;;;28.5;51.38379;931.428;;;;
2021/06/22 10:21:45;;;;;;;0.4;0.4;;;;;;;28.17;54.0918;931.4779;;;;
2021/06/22 10:24:10;;;;;;;0.1;0.1;;;;;;;28.45;52.55664;931.4896;;;;
2021/06/22 10:26:36;;;;;;;2.1;0.4;;;;;;;28.5;52.97754;931.4487;;;;
2021/06/22 10:29:01;;;;;;;0.2;0.2;;;;;;;28.46;53.35352;931.5112;;;;
2021/06/22 10:31:27;;;;;;;0.4;0.4;;;;;;;28.03;53.25586;931.4334;;;;
2021/06/22 10:33:52;;;;;;;0.1;0.1;;;;;;;27.8;55.22266;931.4296;;;;
2021/06/22 10:36:18;;;;;;;0.2;0.2;;;;;;;27.5;53.16895;931.4598;;;;
2021/06/22 10:38:43;;;;;;;0.5;0.4;;;;;;;27.29;55.42188;931.4331;;;;
2021/06/22 10:41:09;;;;;;;0.1;0.1;;;;;;;27.28;55.37305;931.527;;;;
2021/06/22 10:43:34;;;;;;;0.2;0.2;;;;;;;27.06;55.16797;931.4836;;;;
2021/06/22 10:46:02;;;;;;;2.9;0.3;;;;;;;26.79;58.03809;931.5217;;;;
2021/06/22 10:48:25;;;;;;;0.7;0.3;;;;;;;27.15;56.44727;931.4788;;;;
2021/06/22 10:50:50;;;;;;;0.1;0.1;;;;;;;27.19;56.58398;931.5033;;;;
2021/06/22 10:53:15;;;;;;;0.2;0.2;;;;;;;27.61;54.84375;931.4316;;;;
2021/06/22 10:55:43;;;;;;;0.1;0.1;;;;;;;27.59;54.37891;931.4805;;;;
2021/06/22 10:58:05;;;;;;;0.9;0.4;;;;;;;27.61;55.44922;931.5674;;;;
2021/06/22 11:00:32;;;;;;;0.2;0.2;;;;;;;27.34;57.77734;931.4814;;;;
2021/06/22 11:03:00;;;;;;;0.1;0.1;;;;;;;27.52;53.63379;931.6152;;;;
2021/06/22 11:05:25;;;;;;;2.7;0.7;;;;;;;27.38;54.48438;931.5948;;;;
2021/06/22 11:07:50;;;;;;;0.3;0.3;;;;;;;27.49;54.16504;931.5396;;;;
2021/06/22 11:10:16;;;;;;;0.2;0.2;;;;;;;27.81;52.62402;931.5566;;;;
2021/06/22 11:12:40;;;;;;;0.1;0.1;;;;;;;27.87;53.67773;931.4515;;;;
2021/06/22 11:15:08;;;;;;;0.4;0.4;;;;;;;27.97;54.16309;931.4786;;;;
2021/06/22 11:17:34;;;;;;;0.2;0.2;;;;;;;27.69;55.45898;931.4902;;;;
2021/06/22 11:19:59;;;;;;;0.3;0.3;;;;;;;27.67;53.18848;931.5309;;;;
2021/06/22 11:22:25;;;;;;;2.5;0.4;;;;;;;27.86;54.68359;931.4656;;;;
2021/06/22 11:24:50;;;;;;;0.4;0.4;;;;;;;27.95;53.3418;931.4675;;;;
2021/06/22 11:27:15;;;;;;;0.2;0.2;;;;;;;27.61;52.04297;931.6002;;;;
2021/06/22 11:29:40;;;;;;;0.2;0.2;;;;;;;26.96;55.06055;931.552;;;;
2021/06/22 11:32:05;;;;;;;0.1;0.1;;;;;;;26.68;54.84863;931.7111;;;;
2021/06/22 11:34:32;;;;;;;0.1;0.1;;;;;;;26.97;54.2793;931.671;;;;
2021/06/22 11:36:55;;;;;;;0.3;0.3;;;;;;;27.34;53.64941;931.7126;;;;
2021/06/22 11:39:21;;;;;;;0.4;0.4;;;;;;;27.38;54.54199;931.6181;;;;
2021/06/22 11:41:46;;;;;;;1.3;0.9;;;;;;;27.6;52.84863;931.557;;;;
2021/06/22 11:44:11;;;;;;;0.5;0.3;;;;;;;27.63;53.77734;931.6871;;;;
2021/06/22 11:46:40;;;;;;;0.2;0.2;;;;;;;27.85;52.98535;931.6671;;;;
2021/06/22 11:49:04;;;;;;;1.2;0.3;;;;;;;27.6;52.55176;931.7811;;;;
2021/06/22 11:51:29;;;;;;;0.2;0.2;;;;;;;26.88;55.32324;931.6955;;;;
2021/06/22 11:53:54;;;;;;;0.2;0.2;;;;;;;26.67;55.83105;931.747;;;;
2021/06/22 11:56:20;;;;;;;0.2;0.2;;;;;;;26.36;56.4541;931.7512;;;;
2021/06/22 11:58:45;;;;;;;0.1;0.1;;;;;;;26.1;56.83594;931.7983;;;;
2021/06/22 12:01:10;;;;;;;0.1;0.1;;;;;;;26.19;57.03711;931.8605;;;;
2021/06/22 12:03:37;;;;;;;0.1;0.1;;;;;;;26.22;57.59766;931.8953;;;;
2021/06/22 12:06:01;;;;;;;0.2;0.2;;;;;;;26.11;58.62402;931.9292;;;;
2021/06/22 12:08:27;;;;;;;2.2;1;;;;;;;26.58;56.54199;931.9286;;;;
2021/06/22 12:11:49;;;;;;;0.1;0.1;;;;;;;26.68;58.30664;931.7889;;;;
2021/06/22 12:14:14;;;;;;;0.2;0.2;;;;;;;27.21;54.23828;931.8611;;;;
2021/06/22 12:20:28;;;;;;;2.5;0.6;;;;;;;26.53;56.94922;931.9129;;;;
2021/06/22 12:22:53;;;;;;;0.1;0.1;;;;;;;26.16;58.88965;932.0616;;;;
2021/06/22 12:25:18;;;;;;;0.1;0.1;;;;;;;26.28;59.28516;931.9744;;;;
2021/06/22 12:28:25;;;;;;;0.6;0.6;;;;;;;25.66;61.29395;932.0092;;;;
2021/06/22 12:31:14;;;;;;;2.3;0.9;;;;;;;25.59;61.26172;931.9783;;;;
2021/06/22 12:33:38;;;;;;;1.8;0.8;;;;;;;26.05;60.50781;932.0275;;;;
2021/06/22 12:36:03;;;;;;;0.3;0.3;;;;;;;26.18;60.5498;932.0992;;;;
2021/06/22 12:38:29;;;;;;;0.8;0.8;;;;;;;26.15;61.29102;932.106;;;;
2021/06/22 12:40:54;;;;;;;0.5;0.5;;;;;;;26.24;60.57031;932.1222;;;;
2021/06/22 12:43:19;;;;;;;0.8;0.3;;;;;;;26.48;56.68262;932.1522;;;;
2021/06/22 12:45:46;;;;;;;0.1;0.1;;;;;;;26.48;57.35742;932.1911;;;;
2021/06/22 12:48:10;;;;;;;1.2;0.6;;;;;;;26.34;58.37012;932.259;;;;
2021/06/22 12:50:35;;;;;;;0.7;0.7;;;;;;;25.97;59.62207;932.2366;;;;
2021/06/22 12:53:00;;;;;;;0.1;0.1;;;;;;;26.16;60.27539;932.2059;;;;
2021/06/22 12:55:36;;;;;;;2;0.6;;;;;;;26.22;60.07031;932.1875;;;;
2021/06/22 12:57:54;;;;;;;0.3;0.3;;;;;;;26.31;61.5498;932.2214;;;;
2021/06/22 13:00:19;;;;;;;0.3;0.3;;;;;;;26.93;56.77734;932.3375;;;;
2021/06/22 13:02:46;;;;;;;1;0.8;;;;;;;25.88;59.90527;932.3141;;;;
2021/06/22 13:05:42;;;;;;;0.2;0.2;;;;;;;26.01;59;932.3513;;;;
2021/06/22 13:08:05;;;;;;;0.1;0.1;;;;;;;25.64;60.61816;932.5425;;;;
2021/06/22 13:10:31;;;;;;;0.3;0.3;;;;;;;25.84;57.92578;932.5211;;;;
2021/06/22 13:13:01;;;;;;;0.3;0.3;;;;;;;25.84;57.7373;932.5709;;;;
2021/06/22 13:15:28;;;;;;;0.4;0.4;;;;;;;25.91;57.55664;932.524;;;;
2021/06/22 13:17:55;;;;;;;0.6;0.6;;;;;;;25.54;58.99707;932.5092;;;;
2021/06/22 13:20:21;;;;;;;0.8;0.6;;;;;;;24.56;62.21582;932.483;;;;
2021/06/22 13:22:50;;;;;;;2.8;0.9;;;;;;;24.44;63.37793;932.5079;;;;
2021/06/22 13:25:16;;;;;;;0.7;0.5;;;;;;;24.45;63.13184;932.5327;;;;
2021/06/22 13:31:20;;;;;;;0.2;0.2;;;;;;;24.63;61.88379;932.6838;;;;
2021/06/22 13:33:46;;;;;;;0.6;0.6;;;;;;;24.54;62.28418;932.7202;;;;
2021/06/22 13:36:11;;;;;;;0.3;0.3;;;;;;;24.62;62.48438;932.8282;;;;
2021/06/22 13:41:01;;;;;;;0;0;;;;;;;24.37;62.0957;932.8151;;;;
2021/06/22 13:43:26;;;;;;;1.2;1;;;;;;;24.08;61.4668;932.9288;;;;
2021/06/22 13:45:51;;;;;;;0.8;0.8;;;;;;;23.9;64.00879;932.9587;;;;
2021/06/22 13:48:16;;;;;;;4.7;1.1;;;;;;;24.04;62.26074;933.0187;;;;
2021/06/22 13:50:41;;;;;;;0.4;0.3;;;;;;;24.27;61.42188;933.0014;;;;
2021/06/22 13:53:07;;;;;;;0.2;0.2;;;;;;;24.52;60.4668;932.9708;;;;
2021/06/22 13:56:06;;;;;;;0.4;0.3;;;;;;;24;61.86816;933.0691;;;;
2021/06/22 13:58:31;;;;;;;0.2;0.2;;;;;;;23.88;62.96875;933.1461;;;;
2021/06/22 14:00:57;;;;;;;0.5;0.5;;;;;;;23.88;62.61621;933.1705;;;;
2021/06/22 14:03:22;;;;;;;0.4;0.4;;;;;;;24.1;62.02246;933.2264;;;;
2021/06/22 14:05:47;;;;;;;0.3;0.3;;;;;;;23.68;62.94141;933.2963;;;;
2021/06/22 14:08:12;;;;;;;0.3;0.3;;;;;;;23.82;62.63184;933.425;;;;
2021/06/22 14:10:39;;;;;;;0.3;0.3;;;;;;;23.42;63.75098;933.522;;;;
2021/06/22 14:13:04;;;;;;;0.2;0.2;;;;;;;23.46;63.25098;933.5891;;;;
2021/06/22 14:15:29;;;;;;;0.3;0.3;;;;;;;23.51;62.95215;933.5342;;;;
2021/06/22 14:17:58;;;;;;;0.9;0.6;;;;;;;23.45;63.87207;933.698;;;;
2021/06/22 14:20:25;;;;;;;1.5;0.7;;;;;;;23.45;63.74316;933.741;;;;
2021/06/22 14:22:50;;;;;;;4.8;0.8;;;;;;;23.36;63.82422;933.723;;;;
2021/06/22 14:25:16;;;;;;;0.3;0.3;;;;;;;23.5;63.4209;933.8345;;;;
2021/06/22 14:27:41;;;;;;;0.4;0.4;;;;;;;23.37;64.30859;933.9216;;;;
2021/06/22 14:30:08;;;;;;;0.2;0.2;;;;;;;23.32;64.52441;933.9521;;;;
2021/06/22 14:32:33;;;;;;;0.4;0.4;;;;;;;23.07;64.42871;933.9629;;;;